Time;durP1;ratioP1;P1;durP2;ratioP2;P2;SDS_P1;SDS_P2;PMS_P1;PMS_P2;Temp;Humidity;BMP_temperature;BMP_pressure;BME280_temperature;BME280_humidity;BME280_pressure;Samples;Min_cycle;Max_cycle;Signal;HPM_P1;HPM_P2
2021/10/12 00:01:49;;;;;;;42.00;28.17;;;;;;;;;;5053108;28;20416;-66
2021/10/12 00:04:15;;;;;;;49.53;29.67;;;;;;;;;;5056119;28;20401;-67
2021/10/12 00:06:42;;;;;;;52.07;29.93;;;;;;;;;;5056430;28;20401;-67
2021/10/12 00:09:08;;;;;;;45.60;29.77;;;;;;;;;;5056051;28;20528;-67
2021/10/12 00:11:34;;;;;;;41.53;28.67;;;;;;;;;;5056019;28;20934;-66
2021/10/12 00:14:00;;;;;;;43.10;29.43;;;;;;;;;;5055897;28;20453;-66
2021/10/12 00:16:26;;;;;;;42.97;29.73;;;;;;;;;;5055840;28;20429;-66
2021/10/12 00:18:52;;;;;;;48.77;29.30;;;;;;;;;;5055961;28;20922;-66
2021/10/12 00:21:18;;;;;;;40.60;29.70;;;;;;;;;;5055678;28;20441;-66
2021/10/12 00:23:44;;;;;;;41.63;31.07;;;;;;;;;;5055765;28;20437;-66
2021/10/12 00:26:10;;;;;;;43.37;28.17;;;;;;;;;;5055699;28;20913;-66
2021/10/12 00:28:36;;;;;;;44.60;28.90;;;;;;;;;;5055585;28;20433;-66
2021/10/12 00:31:03;;;;;;;43.40;27.50;;;;;;;;;;5055658;28;20397;-66
2021/10/12 00:33:29;;;;;;;49.43;27.73;;;;;;;;;;5055623;28;20488;-67
2021/10/12 00:35:55;;;;;;;41.10;28.90;;;;;;;;;;5055620;28;20402;-66
2021/10/12 00:38:22;;;;;;;43.03;30.20;;;;;;;;;;5055518;28;20420;-67
2021/10/12 00:40:48;;;;;;;44.53;28.50;;;;;;;;;;5055535;28;20405;-67
2021/10/12 00:43:14;;;;;;;50.33;31.93;;;;;;;;;;5055479;28;20846;-67
2021/10/12 00:45:41;;;;;;;38.80;26.60;;;;;;;;;;5055604;28;20412;-67
2021/10/12 00:48:08;;;;;;;50.20;28.13;;;;;;;;;;5055329;28;20890;-66
2021/10/12 00:50:35;;;;;;;40.97;27.87;;;;;;;;;;5055335;28;20445;-66
2021/10/12 00:53:02;;;;;;;38.67;27.00;;;;;;;;;;5054998;28;20984;-67
2021/10/12 00:55:28;;;;;;;46.47;28.70;;;;;;;;;;5055338;28;20841;-67
2021/10/12 00:57:55;;;;;;;40.50;26.47;;;;;;;;;;5055478;28;20809;-67
2021/10/12 01:00:21;;;;;;;42.77;29.47;;;;;;;;;;5055061;28;20489;-66
2021/10/12 01:02:47;;;;;;;45.60;28.90;;;;;;;;;;5055351;28;20413;-67
2021/10/12 01:05:13;;;;;;;42.13;26.20;;;;;;;;;;5055342;28;20402;-67
2021/10/12 01:07:39;;;;;;;35.60;25.07;;;;;;;;;;5055213;28;20916;-67
2021/10/12 01:10:06;;;;;;;45.50;27.17;;;;;;;;;;5054955;28;20441;-67
2021/10/12 01:12:33;;;;;;;42.63;25.33;;;;;;;;;;5055159;28;20454;-67
2021/10/12 01:14:59;;;;;;;44.80;26.93;;;;;;;;;;5054944;28;20944;-67
2021/10/12 01:17:25;;;;;;;42.00;27.10;;;;;;;;;;5055367;28;20406;-67
2021/10/12 01:19:51;;;;;;;45.40;27.50;;;;;;;;;;5054820;28;20417;-67
2021/10/12 01:22:17;;;;;;;39.23;26.43;;;;;;;;;;5054782;28;20407;-67
2021/10/12 01:24:43;;;;;;;46.07;27.30;;;;;;;;;;5054731;28;20400;-67
2021/10/12 01:27:09;;;;;;;43.40;25.60;;;;;;;;;;5054648;28;20393;-66
2021/10/12 01:29:35;;;;;;;36.00;25.00;;;;;;;;;;5054839;28;20475;-67
2021/10/12 01:32:01;;;;;;;40.13;24.57;;;;;;;;;;5055120;28;20398;-66
2021/10/12 01:34:27;;;;;;;39.40;24.60;;;;;;;;;;5054503;28;20441;-66
2021/10/12 01:36:54;;;;;;;37.07;25.10;;;;;;;;;;5054381;28;20903;-67
2021/10/12 01:39:20;;;;;;;38.60;24.57;;;;;;;;;;5054284;28;20445;-67
2021/10/12 01:41:46;;;;;;;38.90;25.40;;;;;;;;;;5054356;28;20844;-66
2021/10/12 01:44:13;;;;;;;41.07;25.60;;;;;;;;;;5054539;28;20757;-66
2021/10/12 01:46:39;;;;;;;41.17;25.33;;;;;;;;;;5054217;28;20403;-67
2021/10/12 01:49:06;;;;;;;39.80;25.10;;;;;;;;;;5054363;28;20426;-67
2021/10/12 01:51:32;;;;;;;44.30;25.37;;;;;;;;;;5053972;28;20417;-66
2021/10/12 01:54:00;;;;;;;43.83;26.30;;;;;;;;;;5034182;28;21001;-66
2021/10/12 01:56:26;;;;;;;40.77;25.07;;;;;;;;;;5053980;28;20417;-66
2021/10/12 01:58:52;;;;;;;43.10;27.47;;;;;;;;;;5054183;28;20457;-67
2021/10/12 02:01:19;;;;;;;41.63;26.70;;;;;;;;;;5053950;28;20425;-66
2021/10/12 02:03:45;;;;;;;46.20;26.20;;;;;;;;;;5053957;28;20414;-66
2021/10/12 02:06:11;;;;;;;48.40;27.93;;;;;;;;;;5053785;28;20416;-66
2021/10/12 02:08:37;;;;;;;47.63;28.03;;;;;;;;;;5053794;28;20453;-66
2021/10/12 02:11:04;;;;;;;45.67;26.80;;;;;;;;;;5053833;28;20398;-66
2021/10/12 02:13:30;;;;;;;40.93;26.37;;;;;;;;;;5053648;28;20459;-66
2021/10/12 02:15:56;;;;;;;37.63;24.70;;;;;;;;;;5053996;28;20447;-66
2021/10/12 02:18:22;;;;;;;44.47;28.50;;;;;;;;;;5053557;28;20482;-66
2021/10/12 02:20:49;;;;;;;42.80;26.00;;;;;;;;;;5053556;28;20401;-66
2021/10/12 02:23:15;;;;;;;42.90;25.67;;;;;;;;;;5053612;28;20412;-66
2021/10/12 02:25:41;;;;;;;39.03;26.83;;;;;;;;;;5053012;28;20435;-66
2021/10/12 02:28:08;;;;;;;47.63;28.33;;;;;;;;;;5053577;28;20908;-66
2021/10/12 02:30:34;;;;;;;51.37;28.83;;;;;;;;;;5053464;28;20803;-67
2021/10/12 02:33:00;;;;;;;45.80;26.83;;;;;;;;;;5053415;28;20476;-67
2021/10/12 02:35:26;;;;;;;42.43;27.03;;;;;;;;;;5053563;28;20401;-67
2021/10/12 02:37:52;;;;;;;43.13;27.63;;;;;;;;;;5053322;28;20882;-67
2021/10/12 02:40:18;;;;;;;48.97;28.10;;;;;;;;;;5053463;28;20422;-67
2021/10/12 02:42:44;;;;;;;46.63;27.40;;;;;;;;;;5053223;28;20409;-67
2021/10/12 02:45:10;;;;;;;42.03;27.80;;;;;;;;;;5053814;28;20413;-66
2021/10/12 02:47:36;;;;;;;42.77;26.10;;;;;;;;;;5053087;28;20412;-67
2021/10/12 02:50:03;;;;;;;46.73;27.00;;;;;;;;;;5053235;28;20818;-67
2021/10/12 02:52:29;;;;;;;43.80;28.63;;;;;;;;;;5052718;28;20507;-67
2021/10/12 02:54:56;;;;;;;51.10;26.97;;;;;;;;;;5053186;28;20402;-67
2021/10/12 02:57:22;;;;;;;44.73;26.93;;;;;;;;;;5053358;28;20406;-67
2021/10/12 02:59:48;;;;;;;43.50;27.23;;;;;;;;;;5052945;28;20460;-67
2021/10/12 03:02:14;;;;;;;42.53;25.40;;;;;;;;;;5053496;28;20467;-67
2021/10/12 03:04:40;;;;;;;47.00;29.63;;;;;;;;;;5053264;28;20413;-67
2021/10/12 03:07:06;;;;;;;41.53;24.63;;;;;;;;;;5053004;28;20426;-67
2021/10/12 03:09:32;;;;;;;37.87;25.50;;;;;;;;;;5052959;28;20530;-67
2021/10/12 03:11:58;;;;;;;42.73;26.03;;;;;;;;;;5053238;28;20416;-66
2021/10/12 03:14:24;;;;;;;43.00;26.10;;;;;;;;;;5052769;28;20483;-67
2021/10/12 03:16:50;;;;;;;40.07;25.67;;;;;;;;;;5052934;28;20886;-67
2021/10/12 03:19:17;;;;;;;39.10;25.47;;;;;;;;;;5053079;28;20425;-67
2021/10/12 03:21:56;;;;;;;42.13;22.40;;;;;;;;;;5052790;28;20402;-67
2021/10/12 03:24:22;;;;;;;41.90;25.60;;;;;;;;;;5053269;28;20779;-67
2021/10/12 03:26:48;;;;;;;42.10;25.67;;;;;;;;;;5051530;28;20929;-67
2021/10/12 03:29:14;;;;;;;43.87;27.50;;;;;;;;;;5052558;28;20442;-67
2021/10/12 03:31:41;;;;;;;44.90;26.10;;;;;;;;;;5052888;28;20401;-67
2021/10/12 03:34:07;;;;;;;46.20;25.17;;;;;;;;;;5053058;28;20542;-67
2021/10/12 03:36:33;;;;;;;42.13;24.57;;;;;;;;;;5053056;28;20409;-67
2021/10/12 03:38:59;;;;;;;34.07;22.83;;;;;;;;;;5056796;28;20417;-66
2021/10/12 03:41:25;;;;;;;38.37;25.20;;;;;;;;;;5057120;28;20398;-66
2021/10/12 03:43:51;;;;;;;42.90;25.03;;;;;;;;;;5057041;28;20760;-66
2021/10/12 03:46:17;;;;;;;40.97;24.50;;;;;;;;;;5056736;28;20397;-66
2021/10/12 03:48:43;;;;;;;37.77;24.80;;;;;;;;;;5056759;28;20437;-66
2021/10/12 03:51:10;;;;;;;38.13;24.40;;;;;;;;;;5056472;28;20503;-67
2021/10/12 03:53:36;;;;;;;41.67;24.50;;;;;;;;;;5056260;28;20954;-66
2021/10/12 03:56:02;;;;;;;37.10;24.90;;;;;;;;;;5056414;28;20401;-66
2021/10/12 03:58:28;;;;;;;37.53;23.10;;;;;;;;;;5056343;28;20404;-66
2021/10/12 04:00:54;;;;;;;43.47;26.53;;;;;;;;;;5056699;28;20410;-66
2021/10/12 04:03:21;;;;;;;39.20;23.33;;;;;;;;;;5056740;28;20796;-66
2021/10/12 04:05:47;;;;;;;43.10;27.50;;;;;;;;;;5056521;28;20417;-66
2021/10/12 04:08:13;;;;;;;41.07;24.83;;;;;;;;;;5056482;28;20401;-66
2021/10/12 04:10:39;;;;;;;40.47;24.50;;;;;;;;;;5055997;28;20488;-66
2021/10/12 04:13:05;;;;;;;38.87;23.80;;;;;;;;;;5054625;28;20472;-66
2021/10/12 04:15:32;;;;;;;43.90;25.50;;;;;;;;;;5056031;28;20412;-66
2021/10/12 04:17:58;;;;;;;42.13;26.60;;;;;;;;;;5056499;28;20874;-66
2021/10/12 04:20:26;;;;;;;43.27;26.73;;;;;;;;;;5056013;28;20457;-66
2021/10/12 04:22:52;;;;;;;43.60;25.77;;;;;;;;;;5055941;28;20402;-66
2021/10/12 04:25:18;;;;;;;41.17;24.80;;;;;;;;;;5055858;28;20416;-66
2021/10/12 04:27:44;;;;;;;55.63;27.30;;;;;;;;;;5055800;28;20406;-66
2021/10/12 04:30:11;;;;;;;39.20;25.33;;;;;;;;;;5055997;28;20429;-66
2021/10/12 04:32:37;;;;;;;44.60;26.30;;;;;;;;;;5055895;28;20479;-66
2021/10/12 04:35:04;;;;;;;41.80;25.53;;;;;;;;;;5055881;28;20402;-66
2021/10/12 04:37:30;;;;;;;35.13;23.37;;;;;;;;;;5055719;28;20398;-66
2021/10/12 04:39:56;;;;;;;44.03;24.77;;;;;;;;;;5055662;28;20413;-66
2021/10/12 04:42:22;;;;;;;44.13;24.10;;;;;;;;;;5055738;28;20740;-66
2021/10/12 04:44:50;;;;;;;39.67;24.40;;;;;;;;;;5055451;28;20409;-66
2021/10/12 04:47:19;;;;;;;42.63;25.37;;;;;;;;;;5055355;28;20459;-66
2021/10/12 04:49:45;;;;;;;39.73;22.93;;;;;;;;;;5063363;22;20461;-76
2021/10/12 04:52:12;;;;;;;40.70;24.57;;;;;;;;;;5080791;22;20990;-68
2021/10/12 04:54:38;;;;;;;45.63;25.33;;;;;;;;;;5075532;28;20401;-67
2021/10/12 04:57:04;;;;;;;43.67;25.27;;;;;;;;;;5066705;28;20423;-68
2021/10/12 04:59:31;;;;;;;40.53;23.00;;;;;;;;;;5055657;28;20407;-67
2021/10/12 05:01:57;;;;;;;44.50;23.93;;;;;;;;;;5055518;28;20418;-68
2021/10/12 05:04:23;;;;;;;44.90;26.67;;;;;;;;;;5055214;28;20811;-68
2021/10/12 05:06:49;;;;;;;37.30;23.83;;;;;;;;;;5055457;28;20768;-68
2021/10/12 05:09:15;;;;;;;35.93;24.33;;;;;;;;;;5063642;28;20484;-67
2021/10/12 05:11:41;;;;;;;43.10;26.00;;;;;;;;;;5075033;28;20421;-68
2021/10/12 05:14:07;;;;;;;44.17;24.90;;;;;;;;;;5075291;28;20887;-67
2021/10/12 05:16:34;;;;;;;43.50;24.43;;;;;;;;;;5075391;28;20416;-67
2021/10/12 05:19:00;;;;;;;42.20;26.00;;;;;;;;;;5075471;28;20398;-67
2021/10/12 05:21:30;;;;;;;40.70;24.77;;;;;;;;;;5075161;28;20772;-67
2021/10/12 05:23:56;;;;;;;35.90;21.80;;;;;;;;;;5074963;28;20451;-67
2021/10/12 05:26:22;;;;;;;37.97;24.60;;;;;;;;;;5075178;28;20404;-67
2021/10/12 05:28:52;;;;;;;39.47;23.07;;;;;;;;;;5074949;28;20401;-67
2021/10/12 05:31:22;;;;;;;35.90;24.00;;;;;;;;;;5056937;28;20452;-68
2021/10/12 05:33:48;;;;;;;40.10;24.87;;;;;;;;;;5074739;28;20526;-67
2021/10/12 05:36:14;;;;;;;39.30;22.90;;;;;;;;;;5074903;28;20606;-67
2021/10/12 05:38:41;;;;;;;37.43;23.50;;;;;;;;;;5074608;28;20429;-67
2021/10/12 05:41:10;;;;;;;48.27;24.20;;;;;;;;;;5074512;28;20412;-67
2021/10/12 05:43:37;;;;;;;41.13;22.70;;;;;;;;;;5074761;28;20830;-67
2021/10/12 05:46:04;;;;;;;36.63;23.20;;;;;;;;;;5063037;28;20406;-66
2021/10/12 05:48:30;;;;;;;40.07;23.53;;;;;;;;;;5054403;28;20455;-67
2021/10/12 05:50:56;;;;;;;34.77;24.00;;;;;;;;;;5054169;28;20425;-66
2021/10/12 05:53:27;;;;;;;39.83;23.87;;;;;;;;;;5054215;28;20437;-67
2021/10/12 05:58:29;;;;;;;38.70;23.27;;;;;;;;;;5054425;28;20401;-66
2021/10/12 06:00:56;;;;;;;35.83;23.87;;;;;;;;;;5053433;28;20778;-66
2021/10/12 06:03:22;;;;;;;34.90;22.30;;;;;;;;;;5053994;28;20397;-67
2021/10/12 06:05:48;;;;;;;33.90;22.70;;;;;;;;;;5054129;28;20399;-66
2021/10/12 06:08:15;;;;;;;37.93;23.00;;;;;;;;;;5053997;28;20398;-66
2021/10/12 06:10:41;;;;;;;38.43;23.83;;;;;;;;;;5053836;28;20437;-67
2021/10/12 06:13:11;;;;;;;36.73;22.27;;;;;;;;;;5053616;28;20445;-67
2021/10/12 06:15:38;;;;;;;46.07;22.63;;;;;;;;;;5053902;28;20753;-67
2021/10/12 06:18:04;;;;;;;41.27;24.80;;;;;;;;;;5053609;28;20429;-67
2021/10/12 06:20:30;;;;;;;36.47;23.23;;;;;;;;;;5035688;28;20425;-67
2021/10/12 06:22:56;;;;;;;33.50;20.80;;;;;;;;;;5053762;28;20409;-67
2021/10/12 06:25:23;;;;;;;37.67;24.00;;;;;;;;;;5054187;28;20404;-69
2021/10/12 06:27:49;;;;;;;43.90;25.13;;;;;;;;;;5053639;28;20413;-68
2021/10/12 06:30:15;;;;;;;33.90;21.33;;;;;;;;;;5053700;28;20418;-69
2021/10/12 06:32:41;;;;;;;38.73;23.00;;;;;;;;;;5053662;28;20473;-69
2021/10/12 06:35:07;;;;;;;38.17;23.63;;;;;;;;;;5035715;28;20456;-69
2021/10/12 06:37:33;;;;;;;36.97;24.07;;;;;;;;;;5053310;28;20397;-67
2021/10/12 06:39:59;;;;;;;35.70;23.70;;;;;;;;;;5053249;28;20937;-69
2021/10/12 06:42:26;;;;;;;40.40;23.23;;;;;;;;;;5053688;28;20425;-69
2021/10/12 06:44:52;;;;;;;33.83;20.90;;;;;;;;;;5053205;28;20437;-67
2021/10/12 06:47:18;;;;;;;38.83;23.43;;;;;;;;;;5061341;28;20443;-67
2021/10/12 06:49:44;;;;;;;40.63;22.37;;;;;;;;;;5072830;28;20411;-68
2021/10/12 06:52:10;;;;;;;31.57;21.67;;;;;;;;;;5065288;28;20436;-67
2021/10/12 06:54:37;;;;;;;36.80;22.80;;;;;;;;;;5067894;28;20447;-66
2021/10/12 06:57:10;;;;;;;35.97;24.43;;;;;;;;;;5061063;28;20909;-66
2021/10/12 06:59:36;;;;;;;31.13;21.40;;;;;;;;;;5057343;28;20420;-67
2021/10/12 07:02:02;;;;;;;34.13;21.40;;;;;;;;;;5061411;28;20487;-67
2021/10/12 07:04:28;;;;;;;38.77;25.77;;;;;;;;;;5065732;28;20409;-67
2021/10/12 07:06:54;;;;;;;30.00;20.40;;;;;;;;;;5069537;28;20454;-67
2021/10/12 07:09:20;;;;;;;36.53;22.33;;;;;;;;;;5069965;28;20417;-69
2021/10/12 07:11:46;;;;;;;33.30;22.43;;;;;;;;;;5070003;28;20429;-68
2021/10/12 07:14:14;;;;;;;33.13;21.40;;;;;;;;;;5070560;28;20437;-68
2021/10/12 07:16:40;;;;;;;33.03;22.77;;;;;;;;;;5070756;28;20412;-68
2021/10/12 07:19:06;;;;;;;31.60;21.57;;;;;;;;;;5070827;28;20408;-69
2021/10/12 07:21:33;;;;;;;31.33;21.13;;;;;;;;;;5071308;28;20435;-67
2021/10/12 07:23:59;;;;;;;36.40;21.83;;;;;;;;;;5065214;28;20409;-67
2021/10/12 07:26:25;;;;;;;32.83;19.40;;;;;;;;;;5071081;28;20437;-68
2021/10/12 07:28:51;;;;;;;33.27;20.70;;;;;;;;;;5070946;28;20417;-68
2021/10/12 07:31:17;;;;;;;31.90;22.33;;;;;;;;;;5070138;28;20783;-67
2021/10/12 07:33:44;;;;;;;31.80;21.67;;;;;;;;;;5071504;28;20460;-67
2021/10/12 07:36:10;;;;;;;35.50;22.73;;;;;;;;;;5053230;28;20413;-68
2021/10/12 07:38:36;;;;;;;32.17;21.43;;;;;;;;;;5070617;28;20413;-67
2021/10/12 07:41:02;;;;;;;37.60;22.10;;;;;;;;;;5070444;28;20519;-68
2021/10/12 07:43:28;;;;;;;36.07;23.67;;;;;;;;;;5048997;28;20791;-67
2021/10/12 07:45:54;;;;;;;35.73;22.43;;;;;;;;;;5070099;28;20513;-67
2021/10/12 07:48:22;;;;;;;34.67;23.70;;;;;;;;;;5067153;28;21700;-68
2021/10/12 07:50:48;;;;;;;40.53;25.30;;;;;;;;;;5067205;28;20449;-68
2021/10/12 07:53:15;;;;;;;33.80;23.17;;;;;;;;;;5069788;28;20457;-66
2021/10/12 07:55:45;;;;;;;35.73;23.07;;;;;;;;;;5069666;28;20753;-66
2021/10/12 07:58:11;;;;;;;33.80;22.00;;;;;;;;;;5069417;28;20401;-67
2021/10/12 08:00:37;;;;;;;32.40;21.67;;;;;;;;;;5070222;28;20440;-69
2021/10/12 08:03:04;;;;;;;29.87;20.30;;;;;;;;;;5069762;28;20412;-67
2021/10/12 08:05:31;;;;;;;37.10;20.63;;;;;;;;;;5064346;28;20449;-68
2021/10/12 08:07:58;;;;;;;32.13;20.60;;;;;;;;;;5070224;28;20906;-70
2021/10/12 08:10:25;;;;;;;36.50;21.70;;;;;;;;;;5070870;28;20440;-65
2021/10/12 08:12:57;;;;;;;31.37;22.80;;;;;;;;;;5069716;28;20474;-69
2021/10/12 08:15:24;;;;;;;27.43;19.70;;;;;;;;;;5066426;28;20415;-70
2021/10/12 08:17:50;;;;;;;29.70;21.23;;;;;;;;;;5069036;28;20413;-69
2021/10/12 08:20:16;;;;;;;29.90;20.47;;;;;;;;;;5069780;28;20475;-67
2021/10/12 08:22:42;;;;;;;32.13;22.30;;;;;;;;;;5070354;28;20420;-65
2021/10/12 08:25:09;;;;;;;30.40;21.00;;;;;;;;;;5074134;28;20411;-67
2021/10/12 08:27:38;;;;;;;33.97;21.07;;;;;;;;;;5073796;28;20404;-68
2021/10/12 08:30:06;;;;;;;28.87;19.83;;;;;;;;;;5073800;28;20436;-66
2021/10/12 08:32:32;;;;;;;30.23;19.73;;;;;;;;;;5071544;28;20412;-66
2021/10/12 08:34:58;;;;;;;30.83;19.43;;;;;;;;;;5072510;28;20428;-66
2021/10/12 08:37:24;;;;;;;30.77;18.73;;;;;;;;;;5073861;28;20420;-66
2021/10/12 08:39:50;;;;;;;31.70;19.40;;;;;;;;;;5073867;28;20413;-67
2021/10/12 08:42:22;;;;;;;27.17;19.60;;;;;;;;;;5072025;28;20466;-67
2021/10/12 08:44:54;;;;;;;27.73;18.87;;;;;;;;;;5072013;28;20420;-68
2021/10/12 08:47:21;;;;;;;21.37;16.20;;;;;;;;;;5071100;28;20401;-66
2021/10/12 08:49:47;;;;;;;23.30;15.20;;;;;;;;;;5071479;28;20516;-66
2021/10/12 08:52:13;;;;;;;25.00;18.17;;;;;;;;;;5072968;28;20847;-66
2021/10/12 08:54:39;;;;;;;23.53;15.90;;;;;;;;;;5072266;28;20449;-67
2021/10/12 08:57:05;;;;;;;23.30;13.90;;;;;;;;;;5071543;28;20412;-66
2021/10/12 08:59:31;;;;;;;21.67;13.80;;;;;;;;;;5078492;28;20475;-66
2021/10/12 09:02:02;;;;;;;25.20;12.57;;;;;;;;;;5070816;28;20425;-66
2021/10/12 09:04:42;;;;;;;16.00;9.90;;;;;;;;;;5072206;28;20420;-65
2021/10/12 09:07:18;;;;;;;15.00;9.80;;;;;;;;;;5071633;28;20417;-69
2021/10/12 09:09:44;;;;;;;15.57;10.07;;;;;;;;;;5075357;28;20424;-68
2021/10/12 09:12:10;;;;;;;15.60;8.70;;;;;;;;;;5072609;28;20412;-70
2021/10/12 09:14:53;;;;;;;13.37;9.10;;;;;;;;;;5073359;28;20448;-68
2021/10/12 09:17:29;;;;;;;11.60;8.70;;;;;;;;;;5069441;28;20419;-70
2021/10/12 09:19:56;;;;;;;14.97;9.07;;;;;;;;;;5071106;28;20416;-70
2021/10/12 09:22:22;;;;;;;12.07;7.47;;;;;;;;;;5071591;28;20431;-69
2021/10/12 09:24:49;;;;;;;12.30;8.73;;;;;;;;;;5072636;28;20413;-71
2021/10/12 09:27:20;;;;;;;10.67;7.40;;;;;;;;;;5072334;28;20492;-70
2021/10/12 09:29:50;;;;;;;14.80;9.63;;;;;;;;;;5074844;28;20428;-72
2021/10/12 09:32:16;;;;;;;14.53;9.40;;;;;;;;;;5071658;28;20423;-71
2021/10/12 09:34:45;;;;;;;11.10;8.63;;;;;;;;;;5070310;28;20494;-74
2021/10/12 09:37:11;;;;;;;15.33;10.43;;;;;;;;;;5056447;28;20416;-71
2021/10/12 09:39:49;;;;;;;19.50;12.00;;;;;;;;;;5068998;28;20487;-68
2021/10/12 09:42:16;;;;;;;18.30;11.90;;;;;;;;;;5073237;28;21172;-67
2021/10/12 09:44:52;;;;;;;14.70;10.17;;;;;;;;;;5068902;28;21251;-67
2021/10/12 09:47:18;;;;;;;17.97;9.73;;;;;;;;;;5071625;28;20417;-69
2021/10/12 09:49:45;;;;;;;22.57;9.10;;;;;;;;;;5073147;28;20416;-70
2021/10/12 09:52:13;;;;;;;10.77;9.47;;;;;;;;;;5077307;28;20440;-67
2021/10/12 09:54:47;;;;;;;15.77;10.50;;;;;;;;;;5071618;28;20460;-72
2021/10/12 09:57:14;;;;;;;13.63;10.60;;;;;;;;;;5072009;28;20428;-67
2021/10/12 09:59:40;;;;;;;20.90;11.47;;;;;;;;;;5072053;28;20467;-65
2021/10/12 10:02:08;;;;;;;24.30;12.17;;;;;;;;;;5072628;28;20452;-67
2021/10/12 10:04:34;;;;;;;20.13;15.03;;;;;;;;;;5070205;28;20455;-69
2021/10/12 10:07:04;;;;;;;20.60;15.50;;;;;;;;;;5071555;28;20457;-69
2021/10/12 10:09:31;;;;;;;29.73;16.90;;;;;;;;;;5072708;28;20405;-71
2021/10/12 10:11:58;;;;;;;26.20;15.37;;;;;;;;;;5064033;28;20460;-68
2021/10/12 10:14:25;;;;;;;24.60;15.10;;;;;;;;;;5070719;28;20444;-69
2021/10/12 10:16:55;;;;;;;22.47;14.83;;;;;;;;;;5070181;28;20599;-68
2021/10/12 10:19:41;;;;;;;25.00;15.98;;;;;;;;;;5071936;28;20756;-65
2021/10/12 10:22:07;;;;;;;21.63;15.57;;;;;;;;;;5066538;28;20181;-70
2021/10/12 10:24:42;;;;;;;22.53;16.43;;;;;;;;;;5070537;28;20413;-69
2021/10/12 10:27:08;;;;;;;29.07;17.47;;;;;;;;;;5071057;28;20924;-69
2021/10/12 10:29:36;;;;;;;26.70;17.97;;;;;;;;;;5078109;28;20912;-67
2021/10/12 10:32:11;;;;;;;22.83;16.03;;;;;;;;;;5055699;28;20429;-67
2021/10/12 10:34:42;;;;;;;28.00;18.40;;;;;;;;;;5072206;28;20440;-66
2021/10/12 10:37:17;;;;;;;21.87;16.03;;;;;;;;;;5071681;28;20413;-69
2021/10/12 10:39:44;;;;;;;30.97;18.97;;;;;;;;;;5070180;28;21007;-70
2021/10/12 10:42:30;;;;;;;23.27;15.50;;;;;;;;;;5071919;28;20409;-71
2021/10/12 10:45:00;;;;;;;24.90;16.80;;;;;;;;;;5067958;28;20417;-68
2021/10/12 10:47:41;;;;;;;20.03;13.70;;;;;;;;;;5068870;28;20471;-66
2021/10/12 10:50:20;;;;;;;20.23;14.87;;;;;;;;;;5072127;28;20436;-65
2021/10/12 10:52:47;;;;;;;23.07;15.20;;;;;;;;;;5073108;28;20464;-66
2021/10/12 10:55:19;;;;;;;19.40;14.97;;;;;;;;;;5070757;28;20412;-65
2021/10/12 10:58:04;;;;;;;20.30;13.93;;;;;;;;;;5069703;28;20509;-65
2021/10/12 11:00:36;;;;;;;17.87;12.30;;;;;;;;;;5064717;28;20428;-66
2021/10/12 11:03:03;;;;;;;18.03;13.40;;;;;;;;;;5070931;28;20504;-65
2021/10/12 11:05:30;;;;;;;19.40;13.50;;;;;;;;;;5070244;28;20431;-66
2021/10/12 11:08:16;;;;;;;19.17;13.20;;;;;;;;;;5070648;28;20413;-67
2021/10/12 11:10:43;;;;;;;21.97;12.80;;;;;;;;;;5069351;28;20416;-67
2021/10/12 11:13:09;;;;;;;20.07;12.40;;;;;;;;;;5066645;28;20835;-65
2021/10/12 11:15:48;;;;;;;19.83;12.67;;;;;;;;;;5050704;28;20534;-67
2021/10/12 11:18:15;;;;;;;17.77;11.83;;;;;;;;;;5069517;28;20453;-67
2021/10/12 11:20:42;;;;;;;17.80;11.60;;;;;;;;;;5070517;28;20469;-67
2021/10/12 11:23:09;;;;;;;17.33;11.83;;;;;;;;;;5068941;28;20507;-67
2021/10/12 11:25:36;;;;;;;17.33;12.50;;;;;;;;;;5073837;28;20409;-67
2021/10/12 11:28:11;;;;;;;15.23;11.50;;;;;;;;;;5050865;28;20462;-67
2021/10/12 11:30:38;;;;;;;15.67;12.70;;;;;;;;;;5069265;28;20444;-65
2021/10/12 11:33:04;;;;;;;18.43;12.07;;;;;;;;;;5066661;28;20536;-67
2021/10/12 11:35:34;;;;;;;19.90;12.30;;;;;;;;;;5070666;28;20889;-66
2021/10/12 11:38:00;;;;;;;16.57;12.70;;;;;;;;;;5070423;28;20409;-66
2021/10/12 11:40:27;;;;;;;17.20;12.70;;;;;;;;;;5070159;28;20440;-66
2021/10/12 11:42:54;;;;;;;14.70;12.00;;;;;;;;;;5063668;28;20416;-66
2021/10/12 11:45:20;;;;;;;15.40;10.37;;;;;;;;;;5070584;28;20428;-66
2021/10/12 11:47:46;;;;;;;12.60;10.00;;;;;;;;;;5070696;28;20417;-67
2021/10/12 11:50:14;;;;;;;17.23;11.10;;;;;;;;;;5071046;28;20435;-66
2021/10/12 11:52:41;;;;;;;15.80;11.67;;;;;;;;;;5069600;28;20440;-66
2021/10/12 11:55:10;;;;;;;15.20;12.10;;;;;;;;;;5070214;28;20507;-66
2021/10/12 11:57:37;;;;;;;18.87;11.20;;;;;;;;;;5070707;28;20798;-66
2021/10/12 12:00:06;;;;;;;17.93;11.70;;;;;;;;;;5068902;28;20416;-66
2021/10/12 12:02:32;;;;;;;18.70;11.47;;;;;;;;;;5069813;28;20416;-67
2021/10/12 12:04:59;;;;;;;18.50;13.13;;;;;;;;;;5073821;28;20491;-65
2021/10/12 12:07:26;;;;;;;16.23;11.90;;;;;;;;;;5068325;28;20405;-67
2021/10/12 12:09:52;;;;;;;20.30;12.80;;;;;;;;;;5071269;28;20401;-66
2021/10/12 12:12:19;;;;;;;15.27;11.40;;;;;;;;;;5073886;28;20418;-65
2021/10/12 12:14:49;;;;;;;21.10;14.43;;;;;;;;;;5072726;28;20444;-65
2021/10/12 12:17:25;;;;;;;17.87;13.20;;;;;;;;;;5072216;28;20486;-65
2021/10/12 12:19:51;;;;;;;20.00;13.10;;;;;;;;;;5073915;28;20412;-65
2021/10/12 12:22:17;;;;;;;15.73;12.47;;;;;;;;;;5073460;28;20937;-65
2021/10/12 12:24:53;;;;;;;16.83;12.13;;;;;;;;;;5073201;28;20416;-65
2021/10/12 12:27:20;;;;;;;18.47;12.60;;;;;;;;;;5073270;28;20516;-67
2021/10/12 12:29:56;;;;;;;15.60;11.27;;;;;;;;;;5072742;28;20459;-67
2021/10/12 12:32:22;;;;;;;15.53;11.13;;;;;;;;;;5068276;28;20419;-67
2021/10/12 12:34:56;;;;;;;16.03;11.90;;;;;;;;;;5072770;28;20468;-67
2021/10/12 12:37:26;;;;;;;16.23;11.93;;;;;;;;;;5069148;28;20411;-67
2021/10/12 12:39:52;;;;;;;16.57;11.13;;;;;;;;;;5072974;28;20709;-65
2021/10/12 12:42:50;;;;;;;16.03;11.10;;;;;;;;;;5071663;28;20562;-66
2021/10/12 12:45:17;;;;;;;13.00;11.40;;;;;;;;;;5026249;28;20424;-67
2021/10/12 12:48:09;;;;;;;16.03;10.93;;;;;;;;;;5073333;28;20431;-66
2021/10/12 12:50:37;;;;;;;18.10;12.47;;;;;;;;;;5070133;28;20470;-66
2021/10/12 12:53:04;;;;;;;15.10;11.07;;;;;;;;;;5072348;28;20452;-66
2021/10/12 12:55:48;;;;;;;18.37;12.47;;;;;;;;;;5072571;28;20414;-66
2021/10/12 12:58:14;;;;;;;17.97;13.40;;;;;;;;;;5072828;28;20495;-66
2021/10/12 13:00:57;;;;;;;19.40;11.73;;;;;;;;;;5071564;28;20475;-66
2021/10/12 13:03:23;;;;;;;18.33;12.77;;;;;;;;;;5070821;28;20470;-66
2021/10/12 13:05:49;;;;;;;16.03;11.90;;;;;;;;;;5067465;28;20831;-66
2021/10/12 13:08:15;;;;;;;15.00;11.57;;;;;;;;;;5073445;28;20727;-66
2021/10/12 13:10:41;;;;;;;15.87;12.60;;;;;;;;;;5072236;28;20498;-67
2021/10/12 13:13:07;;;;;;;14.30;12.13;;;;;;;;;;5072513;28;20463;-66
2021/10/12 13:15:33;;;;;;;18.80;13.13;;;;;;;;;;5054677;28;20405;-66
2021/10/12 13:17:59;;;;;;;16.27;13.07;;;;;;;;;;5071981;28;20428;-66
2021/10/12 13:20:25;;;;;;;19.47;14.23;;;;;;;;;;5068575;28;20782;-67
2021/10/12 13:22:51;;;;;;;20.10;15.30;;;;;;;;;;5071274;28;20511;-66
2021/10/12 13:25:17;;;;;;;17.37;12.73;;;;;;;;;;5072351;28;20451;-67
2021/10/12 13:27:43;;;;;;;17.70;13.80;;;;;;;;;;5068703;28;20428;-66
2021/10/12 13:30:10;;;;;;;16.53;13.10;;;;;;;;;;5072354;28;20437;-66
2021/10/12 13:32:36;;;;;;;19.93;13.87;;;;;;;;;;5070976;28;20413;-66
2021/10/12 13:35:02;;;;;;;17.40;13.20;;;;;;;;;;5072392;28;20417;-66
2021/10/12 13:37:28;;;;;;;21.20;16.37;;;;;;;;;;5069766;28;20493;-65
2021/10/12 13:39:55;;;;;;;19.43;15.20;;;;;;;;;;5072913;28;20451;-67
2021/10/12 13:42:21;;;;;;;18.73;13.53;;;;;;;;;;5069396;28;20479;-67
2021/10/12 13:44:49;;;;;;;26.57;15.10;;;;;;;;;;5070161;28;20780;-67
2021/10/12 13:47:17;;;;;;;22.20;15.27;;;;;;;;;;5071780;28;20516;-67
2021/10/12 13:49:44;;;;;;;20.53;14.43;;;;;;;;;;5072912;28;20471;-65
2021/10/12 13:52:10;;;;;;;21.37;13.20;;;;;;;;;;5070246;28;20822;-66
2021/10/12 13:54:36;;;;;;;16.80;13.00;;;;;;;;;;5066999;28;20905;-65
2021/10/12 13:57:03;;;;;;;17.80;14.07;;;;;;;;;;5072403;28;20471;-65
2021/10/12 13:59:29;;;;;;;17.63;13.00;;;;;;;;;;5072654;28;20914;-67
2021/10/12 14:01:55;;;;;;;19.47;13.10;;;;;;;;;;5070954;28;20592;-66
2021/10/12 14:04:21;;;;;;;16.80;13.33;;;;;;;;;;5070400;28;20916;-66
2021/10/12 14:06:47;;;;;;;14.97;12.50;;;;;;;;;;5069148;28;20423;-66
2021/10/12 14:09:13;;;;;;;18.97;13.47;;;;;;;;;;5070096;28;20504;-66
2021/10/12 14:11:39;;;;;;;15.00;12.57;;;;;;;;;;5071186;28;20924;-66
2021/10/12 14:14:06;;;;;;;16.80;12.20;;;;;;;;;;5067634;28;20801;-66
2021/10/12 14:16:32;;;;;;;16.60;12.37;;;;;;;;;;5071088;28;20416;-66
2021/10/12 14:18:58;;;;;;;16.90;11.60;;;;;;;;;;5066991;28;20426;-66
2021/10/12 14:21:24;;;;;;;14.83;11.33;;;;;;;;;;5067821;28;20436;-66
2021/10/12 14:23:51;;;;;;;15.27;11.43;;;;;;;;;;5071102;28;21214;-66